Time;durP1;ratioP1;P1;durP2;ratioP2;P2;SDS_P1;SDS_P2;PMS_P1;PMS_P2;Temp;Humidity;BMP_temperature;BMP_pressure;BME280_temperature;BME280_humidity;BME280_pressure;Samples;Min_cycle;Max_cycle;Signal;HPM_P1;HPM_P2
2022/07/25 00:01:46;;;;;;;8.87;6.83;;;22.20;99.90;;;20.50;99.02;100108.56;5030561;28;20339;-79
2022/07/25 00:04:13;;;;;;;10.18;7.50;;;22.30;99.90;;;20.54;98.96;100104.19;5031470;28;20069;-79
2022/07/25 00:06:42;;;;;;;9.93;7.18;;;22.30;99.90;;;20.62;96.69;100105.69;5031441;28;20049;-79
2022/07/25 00:09:10;;;;;;;11.07;7.00;;;22.30;99.90;;;20.65;94.46;100089.41;5029993;28;20099;-79
2022/07/25 00:11:40;;;;;;;10.40;7.20;;;22.30;99.50;;;20.73;93.85;100085.31;5029482;28;20103;-79
2022/07/25 00:14:11;;;;;;;9.98;7.25;;;22.30;99.40;;;20.75;91.62;100082.31;5031967;28;20061;-79
2022/07/25 00:16:38;;;;;;;9.93;6.90;;;22.40;99.00;;;20.77;91.96;100080.97;5028002;28;20045;-79
2022/07/25 00:19:07;;;;;;;9.82;6.95;;;22.40;98.90;;;20.81;89.15;100072.94;5011269;28;20076;-79
2022/07/25 00:21:34;;;;;;;11.50;6.80;;;22.40;97.80;;;20.82;90.09;100064.38;5024825;28;20059;-79
2022/07/25 00:24:02;;;;;;;9.25;6.05;;;22.40;97.70;;;20.79;90.61;100061.31;5029069;28;20043;-79
2022/07/25 00:26:29;;;;;;;11.00;7.00;;;22.40;98.10;;;20.73;91.57;100062.38;5026785;28;20052;-79
2022/07/25 00:28:56;;;;;;;9.32;7.47;;;22.40;98.70;;;20.68;91.67;100052.94;5026513;28;20041;-79
2022/07/25 00:31:23;;;;;;;8.63;6.70;;;22.40;98.50;;;20.61;91.04;100054.25;5031065;28;20029;-79
2022/07/25 00:33:50;;;;;;;9.73;6.93;;;22.40;98.30;;;20.48;91.39;100058.25;5029879;28;20038;-79
2022/07/25 00:36:19;;;;;;;9.43;6.93;;;22.40;98.30;;;20.38;93.96;100056.22;5028318;28;20069;-79
2022/07/25 00:38:46;;;;;;;9.32;7.10;;;22.40;99.10;;;20.37;94.72;100062.84;5029821;28;20159;-79
2022/07/25 00:41:14;;;;;;;10.20;6.93;;;22.40;99.70;;;20.38;95.06;100052.63;5030409;28;20485;-79
2022/07/25 00:43:43;;;;;;;8.90;6.93;;;22.30;99.60;;;20.38;95.29;100055.41;5031163;28;20054;-79
2022/07/25 00:46:13;;;;;;;10.38;7.43;;;22.30;99.70;;;20.43;93.42;100047.16;5029170;28;20042;-79
2022/07/25 00:48:41;;;;;;;10.68;6.85;;;22.30;99.50;;;20.43;93.61;100047.16;5030085;28;20172;-79
2022/07/25 00:51:08;;;;;;;9.98;6.97;;;22.30;99.30;;;20.40;94.01;100051.25;5023014;28;20061;-79
2022/07/25 00:53:37;;;;;;;11.65;7.32;;;22.30;99.20;;;20.38;92.63;100044.34;5031467;28;20409;-79
2022/07/25 00:56:06;;;;;;;11.00;7.07;;;22.30;98.90;;;20.39;92.22;100034.94;5030145;28;20637;-79
2022/07/25 00:58:33;;;;;;;10.75;6.78;;;22.30;99.00;;;20.38;92.25;100038.81;5028946;28;20038;-79
2022/07/25 01:01:02;;;;;;;11.45;7.25;;;22.30;98.70;;;20.40;92.51;100036.63;5029473;28;20371;-79
2022/07/25 01:03:29;;;;;;;12.43;6.90;;;22.30;98.90;;;20.38;91.49;100038.81;5024891;28;20642;-79
2022/07/25 01:05:56;;;;;;;10.80;6.90;;;22.30;98.60;;;20.37;91.16;100040.75;5030086;28;20140;-79
2022/07/25 01:08:24;;;;;;;8.80;6.55;;;22.30;98.20;;;20.39;92.21;100037.69;5026565;28;20053;-79
2022/07/25 01:10:52;;;;;;;11.38;7.57;;;22.30;98.50;;;20.39;92.28;100040.47;5029525;28;20049;-79
2022/07/25 01:13:20;;;;;;;11.88;6.97;;;22.30;98.70;;;20.38;91.55;100041.56;5028270;28;20124;-79
2022/07/25 01:15:47;;;;;;;9.18;6.68;;;22.20;98.30;;;20.37;91.00;100042.66;5030754;28;20049;-79
2022/07/25 01:18:14;;;;;;;9.07;6.80;;;22.30;98.00;;;20.36;90.86;100033.53;5028355;28;20057;-79
2022/07/25 01:20:43;;;;;;;8.18;6.70;;;22.30;97.90;;;20.36;90.49;100028.00;5027815;28;20045;-79
2022/07/25 01:23:10;;;;;;;10.00;6.25;;;22.30;97.90;;;20.35;89.28;100028.25;5028998;28;20049;-79
2022/07/25 01:25:38;;;;;;;8.63;6.78;;;22.20;97.50;;;20.34;89.83;100026.63;5028569;28;20449;-79
2022/07/25 01:28:05;;;;;;;9.40;7.45;;;22.20;97.40;;;20.33;90.53;100028.53;5020807;28;20122;-79
2022/07/25 01:30:32;;;;;;;9.25;6.97;;;22.20;97.60;;;20.36;89.77;100021.66;5028803;28;20489;-79
2022/07/25 01:33:00;;;;;;;12.02;7.13;;;22.20;97.70;;;20.42;89.55;100023.38;5030808;28;20525;-79
2022/07/25 01:35:27;;;;;;;8.93;6.63;;;22.20;97.40;;;20.50;89.20;100022.88;5029445;28;20077;-79
2022/07/25 01:37:55;;;;;;;8.30;6.72;;;22.30;97.40;;;20.56;88.09;100023.75;5028396;28;20041;-79
2022/07/25 01:40:23;;;;;;;8.68;6.22;;;22.30;97.10;;;20.61;87.36;100021.09;5028949;28;20160;-79
2022/07/25 01:42:50;;;;;;;11.27;6.90;;;22.30;96.20;;;20.63;85.48;100019.72;5028435;28;20128;-79
2022/07/25 01:45:17;;;;;;;10.90;6.60;;;22.30;96.00;;;20.69;84.90;100018.69;5026763;28;20073;-79
2022/07/25 01:47:44;;;;;;;11.10;7.03;;;22.30;95.30;;;20.70;85.03;100020.31;5029703;28;20068;-79
2022/07/25 01:50:11;;;;;;;9.98;7.13;;;22.30;95.20;;;20.72;84.13;100022.00;5028188;28;20124;-79
2022/07/25 01:52:39;;;;;;;9.25;6.25;;;22.40;94.70;;;20.74;83.83;100019.81;5029819;28;20041;-79
2022/07/25 01:55:09;;;;;;;9.93;6.10;;;22.30;94.70;;;20.73;83.70;100012.59;5029582;28;20494;-79
2022/07/25 01:57:36;;;;;;;9.82;6.88;;;22.40;94.60;;;20.68;85.96;100022.53;5028569;28;20488;-79
2022/07/25 02:00:06;;;;;;;10.57;7.35;;;22.40;95.30;;;20.60;86.93;100014.72;5028321;28;20037;-79
2022/07/25 02:02:39;;;;;;;9.68;6.38;;;22.40;96.10;;;20.55;87.25;100009.09;5028331;28;20096;-79
2022/07/25 02:05:07;;;;;;;8.57;6.72;;;22.40;96.40;;;20.54;87.56;100007.44;5028480;28;20068;-79
2022/07/25 02:07:35;;;;;;;10.82;6.78;;;22.30;96.70;;;20.53;87.99;100004.94;5028652;28;20073;-79
2022/07/25 02:10:03;;;;;;;10.38;7.10;;;22.30;96.70;;;20.50;87.09;99998.00;5032977;28;20044;-79
2022/07/25 02:12:32;;;;;;;9.05;6.78;;;22.30;96.30;;;20.48;87.33;100000.19;5028483;28;20080;-79
2022/07/25 02:14:59;;;;;;;9.52;6.75;;;22.30;96.40;;;20.44;89.33;100005.41;5028787;28;20037;-79
2022/07/25 02:17:26;;;;;;;10.45;7.05;;;22.30;97.00;;;20.37;89.27;100002.06;5028747;28;20046;-79
2022/07/25 02:19:53;;;;;;;11.00;6.97;;;22.30;96.90;;;20.37;88.62;99991.00;5025892;28;20063;-79
2022/07/25 02:22:21;;;;;;;12.73;6.63;;;22.30;96.80;;;20.36;89.21;99989.31;5027045;28;20060;-79
2022/07/25 02:24:48;;;;;;;10.35;6.90;;;22.30;97.20;;;20.33;87.66;99998.13;5028616;28;20588;-79
2022/07/25 02:27:15;;;;;;;10.95;7.03;;;22.30;96.50;;;20.34;88.27;99985.97;5028313;28;20041;-79
2022/07/25 02:29:43;;;;;;;11.10;7.00;;;22.20;96.60;;;20.34;88.50;99982.41;5009914;28;20160;-79
2022/07/25 02:32:10;;;;;;;9.38;7.07;;;22.20;96.80;;;20.34;87.87;99991.50;5029012;28;20041;-79
2022/07/25 02:34:38;;;;;;;10.60;7.40;;;22.20;96.60;;;20.38;86.49;99978.81;5028793;28;20051;-79
2022/07/25 02:37:05;;;;;;;8.82;6.85;;;22.20;96.20;;;20.43;86.24;99981.66;5027295;28;20569;-79
2022/07/25 02:39:32;;;;;;;12.18;7.07;;;22.20;96.00;;;20.47;84.30;99981.97;5024504;28;20043;-79
2022/07/25 02:41:59;;;;;;;9.77;6.55;;;22.20;95.20;;;20.48;84.75;99984.44;5028513;28;20032;-79
2022/07/25 02:44:26;;;;;;;10.02;7.10;;;22.20;95.20;;;20.52;83.41;99973.69;5029023;28;20060;-79
2022/07/25 02:46:55;;;;;;;9.77;6.22;;;22.30;95.10;;;20.52;83.46;99979.22;5028667;28;20049;-79
2022/07/25 02:49:22;;;;;;;10.73;6.97;;;22.20;94.90;;;20.55;82.97;99967.63;5022931;28;20041;-79
2022/07/25 02:51:49;;;;;;;10.15;6.28;;;22.30;94.40;;;20.60;81.97;99961.34;5028234;28;20120;-79
2022/07/25 02:54:16;;;;;;;10.10;6.40;;;22.20;94.10;;;20.61;82.57;99961.06;5020534;28;20510;-79
2022/07/25 02:56:43;;;;;;;9.32;6.28;;;22.20;93.80;;;20.55;82.23;99953.81;5027078;28;20099;-79
2022/07/25 02:59:11;;;;;;;10.07;6.40;;;22.30;94.10;;;20.55;83.16;99956.59;5027474;28;20143;-78
2022/07/25 03:01:38;;;;;;;8.23;6.00;;;22.30;93.90;;;20.51;82.45;99945.22;5010678;28;20140;-79
2022/07/25 03:04:07;;;;;;;10.27;6.43;;;22.30;93.90;;;20.50;82.85;99953.75;5029644;28;20041;-79
2022/07/25 03:06:34;;;;;;;11.05;6.60;;;22.30;94.20;;;20.45;83.58;99945.47;5028023;28;20128;-79
2022/07/25 03:09:02;;;;;;;9.63;6.95;;;22.30;94.30;;;20.43;83.47;99944.88;5008582;28;20445;-79
2022/07/25 03:11:29;;;;;;;9.20;6.57;;;22.20;94.20;;;20.37;85.12;99944.00;5028187;28;20049;-79
2022/07/25 03:13:56;;;;;;;9.93;6.68;;;22.30;95.00;;;20.32;86.97;99935.66;5026230;28;20131;-79
2022/07/25 03:16:23;;;;;;;10.15;7.43;;;22.30;95.50;;;20.25;87.74;99938.63;5027633;28;20049;-79
2022/07/25 03:18:51;;;;;;;9.98;7.20;;;22.20;95.90;;;20.18;88.96;99935.28;5028312;28;20053;-79
2022/07/25 03:21:19;;;;;;;9.48;6.85;;;22.20;96.50;;;20.13;89.47;99932.47;5027486;28;20099;-79
2022/07/25 03:23:46;;;;;;;10.90;6.95;;;22.10;96.90;;;20.06;89.98;99929.91;5010678;28;20421;-79
2022/07/25 03:26:14;;;;;;;10.88;7.38;;;22.10;97.00;;;20.07;89.12;99933.53;5010766;28;20079;-79
2022/07/25 03:28:41;;;;;;;9.15;6.70;;;22.10;96.70;;;20.02;89.85;99925.19;5032287;28;20045;-79
2022/07/25 03:31:08;;;;;;;9.27;6.90;;;22.10;97.00;;;19.97;91.22;99927.88;5031365;28;20083;-78
2022/07/25 03:33:35;;;;;;;10.95;7.03;;;22.10;97.30;;;19.96;90.75;99927.06;5030656;28;20044;-79
2022/07/25 03:36:04;;;;;;;8.80;6.60;;;22.00;97.30;;;19.96;89.81;99926.22;5031028;28;20080;-79
2022/07/25 03:38:32;;;;;;;9.18;6.75;;;22.10;97.50;;;20.03;89.00;99926.81;5025448;28;20047;-80
2022/07/25 03:40:59;;;;;;;9.23;6.85;;;22.00;96.80;;;19.99;89.31;99920.16;5031584;28;20051;-81
2022/07/25 03:43:27;;;;;;;10.40;7.20;;;22.00;96.70;;;19.94;89.66;99918.19;5031358;28;20041;-82
2022/07/25 03:45:54;;;;;;;9.60;6.88;;;22.00;96.80;;;19.90;90.92;99917.88;5031218;28;20124;-80
2022/07/25 03:48:21;;;;;;;10.73;7.07;;;22.00;97.30;;;19.84;91.50;99907.06;5013382;28;20596;-81
2022/07/25 03:50:48;;;;;;;10.10;7.10;;;22.00;97.90;;;19.82;91.47;99903.69;5029908;28;20050;-81
2022/07/25 03:53:15;;;;;;;12.15;7.15;;;21.90;97.80;;;19.82;90.22;99895.41;5031564;28;20045;-82
2022/07/25 03:55:44;;;;;;;15.40;6.90;;;21.90;97.50;;;19.90;90.47;99901.31;5028460;28;20033;-83
2022/07/25 03:58:11;;;;;;;10.38;7.18;;;21.90;97.10;;;19.86;91.79;99891.06;5031160;28;20045;-81
2022/07/25 04:00:38;;;;;;;9.80;6.78;;;21.90;97.50;;;19.84;90.78;99890.50;5028022;28;20055;-81
2022/07/25 04:03:05;;;;;;;11.20;7.22;;;21.90;97.80;;;19.90;91.33;99895.78;5039239;28;20059;-80
2022/07/25 04:05:33;;;;;;;10.07;7.10;;;21.90;97.70;;;19.88;91.19;99897.97;5028876;28;20059;-81
2022/07/25 04:08:00;;;;;;;8.65;6.88;;;21.90;97.50;;;19.95;90.55;99897.75;5028248;28;20037;-81
2022/07/25 04:10:27;;;;;;;10.02;6.35;;;21.90;97.50;;;19.99;88.90;99895.31;5030343;28;20045;-81
2022/07/25 04:12:56;;;;;;;11.20;7.22;;;21.90;97.10;;;20.12;89.55;99894.88;5031322;28;20124;-79
2022/07/25 04:15:23;;;;;;;13.75;7.25;;;21.90;97.20;;;20.11;90.50;99893.22;5030674;28;20047;-80
2022/07/25 04:17:51;;;;;;;13.40;7.72;;;21.90;97.70;;;20.14;90.89;99900.97;5030885;28;20044;-80
2022/07/25 04:20:18;;;;;;;10.57;7.47;;;21.90;98.20;;;20.20;93.56;99896.31;5020901;28;20037;-80
2022/07/25 04:22:45;;;;;;;9.02;7.00;;;22.00;98.90;;;20.23;93.79;99898.56;5027859;28;20093;-80
2022/07/25 04:25:12;;;;;;;9.77;6.90;;;22.00;99.70;;;20.28;93.90;99887.56;5028062;28;20052;-79
2022/07/25 04:27:40;;;;;;;9.32;6.55;;;22.00;99.90;;;20.39;94.35;99882.91;5029490;28;20580;-79
2022/07/25 04:30:11;;;;;;;10.07;7.22;;;22.00;99.90;;;20.51;94.55;99883.56;5025811;28;20060;-79
2022/07/25 04:32:38;;;;;;;11.57;6.68;;;22.00;99.90;;;20.56;95.00;99875.31;5007443;28;20045;-79
2022/07/25 04:35:07;;;;;;;12.25;7.18;;;22.00;99.90;;;20.63;94.97;99880.63;5026044;28;20037;-79
2022/07/25 04:37:36;;;;;;;8.63;7.03;;;22.10;99.90;;;20.66;95.35;99875.41;5026072;28;20132;-79
2022/07/25 04:40:04;;;;;;;14.13;7.40;;;22.10;99.90;;;20.77;94.78;99867.16;5025722;28;20072;-79
2022/07/25 04:42:32;;;;;;;9.85;7.00;;;22.10;99.90;;;20.83;95.48;99874.41;5027924;28;20041;-80
2022/07/25 04:44:59;;;;;;;10.75;7.28;;;22.10;99.90;;;20.89;95.56;99873.31;5030651;28;20120;-80
2022/07/25 04:47:27;;;;;;;12.73;7.35;;;22.20;99.90;;;20.97;96.49;99875.56;5027608;28;20060;-80
2022/07/25 04:49:55;;;;;;;9.23;6.70;;;22.20;99.90;;;21.03;97.42;99880.00;5025850;28;20045;-80
2022/07/25 04:52:22;;;;;;;9.93;7.22;;;22.20;99.90;;;21.08;96.95;99871.75;5031648;28;20076;-80
2022/07/25 04:54:50;;;;;;;8.27;6.82;;;22.30;99.90;;;21.12;97.48;99862.91;5030592;28;20103;-79
2022/07/25 04:57:17;;;;;;;9.05;6.72;;;22.30;99.90;;;21.17;97.57;99863.78;5027693;28;20041;-81
2022/07/25 04:59:44;;;;;;;10.00;7.28;;;22.40;99.90;;;21.27;95.33;99860.19;5022399;28;20494;-81
2022/07/25 05:02:12;;;;;;;10.50;7.07;;;22.40;99.90;;;21.37;94.30;99863.00;5011927;28;20045;-79
2022/07/25 05:04:40;;;;;;;9.13;6.82;;;22.40;99.90;;;21.47;93.49;99857.50;5029911;28;20116;-79
2022/07/25 05:07:07;;;;;;;9.40;7.05;;;22.50;99.90;;;21.64;91.69;99850.91;5030128;28;20107;-79
2022/07/25 05:09:34;;;;;;;8.90;7.03;;;22.50;99.90;;;21.70;89.59;99849.78;5026424;28;20037;-80
2022/07/25 05:12:02;;;;;;;9.43;6.60;;;22.50;99.90;;;21.75;89.04;99852.56;5028244;28;20038;-80
2022/07/25 05:14:29;;;;;;;9.50;6.47;;;22.60;99.90;;;21.94;86.56;99855.63;5029382;28;20052;-80
2022/07/25 05:16:56;;;;;;;10.68;6.63;;;22.60;98.90;;;22.06;84.41;99852.59;5028729;28;20038;-80
2022/07/25 05:19:23;;;;;;;9.38;6.50;;;22.60;98.00;;;22.20;84.37;99836.22;5026493;28;20080;-80
2022/07/25 05:21:52;;;;;;;10.55;6.40;;;22.70;98.60;;;22.27;84.75;99842.34;5030080;28;20524;-80
2022/07/25 05:24:19;;;;;;;9.23;6.53;;;22.70;98.50;;;22.21;85.81;99837.91;5024196;28;20055;-80
2022/07/25 05:26:46;;;;;;;10.15;6.90;;;22.80;98.80;;;22.28;85.29;99832.94;5025839;28;20124;-81
2022/07/25 05:29:14;;;;;;;10.25;5.80;;;22.80;98.80;;;22.38;84.27;99837.63;5026982;28;20049;-80
2022/07/25 05:31:42;;;;;;;11.30;6.53;;;22.90;98.30;;;22.46;87.16;99831.50;5029100;28;20481;-80
2022/07/25 05:34:09;;;;;;;8.55;6.60;;;22.90;99.20;;;22.57;85.85;99824.81;5024538;28;20045;-80
2022/07/25 05:36:38;;;;;;;9.52;6.68;;;22.90;99.10;;;22.68;84.75;99824.81;5030026;28;20054;-82
2022/07/25 05:39:07;;;;;;;8.40;6.68;;;23.00;99.00;;;22.81;81.91;99824.22;5028400;28;20049;-78
2022/07/25 05:41:34;;;;;;;10.38;6.03;;;23.00;97.60;;;22.92;79.33;99825.81;5011298;28;20462;-77
2022/07/25 05:44:09;;;;;;;12.32;6.60;;;23.10;96.50;;;22.97;80.14;99831.34;5011270;28;20056;-78
2022/07/25 05:46:36;;;;;;;11.20;6.80;;;23.10;96.80;;;22.96;83.18;99823.31;5025088;28;20498;-77
2022/07/25 05:49:03;;;;;;;14.38;6.38;;;23.20;98.10;;;23.00;81.10;99822.47;5028668;28;20128;-78
2022/07/25 05:51:31;;;;;;;9.73;6.45;;;23.20;95.70;;;23.09;84.13;99819.94;5026333;28;20055;-77
2022/07/25 05:53:58;;;;;;;8.73;6.10;;;23.30;97.60;;;23.14;82.25;99816.31;5020537;28;20048;-77
2022/07/25 05:56:27;;;;;;;8.75;6.05;;;23.30;98.10;;;23.27;81.88;99821.25;5027577;28;20049;-81
2022/07/25 05:58:54;;;;;;;11.82;6.68;;;23.40;98.00;;;23.45;82.63;99814.19;5027981;28;20041;-81
2022/07/25 06:01:21;;;;;;;9.02;6.78;;;23.40;98.10;;;23.69;78.26;99805.97;5028278;28;20107;-79
2022/07/25 06:03:48;;;;;;;10.32;7.03;;;23.50;97.00;;;23.79;74.99;99808.69;5029680;28;20422;-84
2022/07/25 06:06:15;;;;;;;10.23;6.20;;;23.60;94.80;;;24.05;74.10;99805.72;5027342;28;20440;-81
2022/07/25 06:08:43;;;;;;;11.82;6.65;;;23.70;94.70;;;24.26;74.97;99809.13;5033931;28;20651;-87
2022/07/25 06:11:10;;;;;;;11.15;6.10;;;23.80;94.80;;;24.06;74.72;99800.97;5004694;28;20452;-87
2022/07/25 06:13:39;;;;;;;9.77;5.90;;;23.90;94.70;;;23.91;75.95;99808.34;5025378;28;20103;-86
2022/07/25 06:16:07;;;;;;;12.05;5.72;;;23.90;93.80;;;23.95;77.66;99803.00;5020493;28;20065;-87
2022/07/25 06:18:34;;;;;;;10.27;6.43;;;23.90;95.90;;;23.82;78.47;99798.97;5015175;28;20148;-88
2022/07/25 06:21:01;;;;;;;8.20;5.95;;;23.90;95.70;;;23.70;78.72;99793.72;5025765;28;20051;-80
2022/07/25 06:23:30;;;;;;;7.95;5.63;;;23.90;96.40;;;23.71;77.03;99800.97;5020054;28;20387;-82
2022/07/25 06:25:58;;;;;;;9.43;6.18;;;23.90;95.90;;;23.74;80.51;99794.84;5025893;28;20781;-82
2022/07/25 06:28:25;;;;;;;9.00;5.55;;;23.90;96.80;;;23.77;78.26;99797.00;5026915;28;20490;-82
2022/07/25 06:30:54;;;;;;;11.13;6.18;;;23.90;96.60;;;23.73;78.99;99801.50;5028505;28;20052;-82
2022/07/25 06:33:21;;;;;;;11.10;6.05;;;23.90;96.10;;;23.71;78.66;99795.41;5026968;28;20087;-79
2022/07/25 06:35:48;;;;;;;9.32;6.30;;;23.90;96.50;;;23.74;79.69;99796.75;5022170;28;20037;-84
2022/07/25 06:38:16;;;;;;;12.30;7.97;;;23.90;96.70;;;23.87;77.70;99795.31;5019759;28;20041;-82
2022/07/25 06:40:43;;;;;;;9.30;7.18;;;23.90;95.80;;;24.15;78.86;99796.44;5028254;28;20051;-83
2022/07/25 06:43:10;;;;;;;13.00;6.60;;;24.00;96.90;;;24.33;76.77;99797.66;5027019;28;20599;-83
2022/07/25 06:45:37;;;;;;;8.88;5.72;;;24.10;96.40;;;24.43;75.19;99792.00;5025886;28;20045;-82
2022/07/25 06:48:06;;;;;;;11.30;6.13;;;24.10;96.00;;;24.77;74.07;99796.66;5025993;28;20048;-84
2022/07/25 06:50:33;;;;;;;10.00;5.53;;;24.10;95.80;;;24.85;72.37;99795.16;5002173;28;20598;-80
2022/07/25 06:53:00;;;;;;;10.38;6.03;;;24.20;95.00;;;24.89;70.75;99791.47;5024177;28;20884;-80
2022/07/25 06:55:28;;;;;;;10.35;6.30;;;24.30;93.60;;;25.08;68.90;99796.25;5022986;28;20049;-83
2022/07/25 06:57:55;;;;;;;12.77;5.80;;;24.30;92.40;;;25.11;68.02;99801.19;5027772;28;20510;-79
2022/07/25 07:00:22;;;;;;;9.32;5.97;;;24.40;91.80;;;25.05;69.54;99792.09;5020147;28;20053;-76
2022/07/25 07:02:55;;;;;;;11.07;5.97;;;24.40;92.80;;;25.00;68.00;99794.13;5031786;28;20513;-76
2022/07/25 07:05:25;;;;;;;11.60;5.82;;;24.50;91.80;;;25.01;69.42;99798.56;5030818;28;20401;-76
2022/07/25 07:07:53;;;;;;;10.63;6.13;;;24.40;92.40;;;25.07;68.95;99794.56;5028545;28;20048;-76
2022/07/25 07:10:21;;;;;;;9.20;6.32;;;24.50;92.30;;;25.17;65.89;99792.50;5027190;28;20052;-76
2022/07/25 07:12:48;;;;;;;10.10;5.75;;;24.60;90.20;;;25.26;68.46;99789.88;5031095;28;20037;-77
2022/07/25 07:15:16;;;;;;;12.98;6.10;;;24.60;92.30;;;25.38;66.21;99777.47;5031776;28;20037;-76
2022/07/25 07:17:44;;;;;;;10.13;6.72;;;24.70;90.70;;;25.51;63.73;99779.47;5028762;28;20053;-76
2022/07/25 07:20:12;;;;;;;9.25;6.20;;;24.80;89.20;;;25.55;63.99;99777.75;5014430;28;20045;-76
2022/07/25 07:22:48;;;;;;;10.55;6.03;;;24.80;88.80;;;25.53;64.79;99777.22;5031171;28;20180;-76
2022/07/25 07:25:18;;;;;;;10.27;6.32;;;24.90;89.20;;;25.56;64.62;99777.44;5030987;28;20053;-76
2022/07/25 07:27:45;;;;;;;10.68;5.90;;;25.00;88.70;;;25.61;63.59;99776.56;5025592;28;20120;-76
2022/07/25 07:30:14;;;;;;;8.85;6.00;;;25.00;88.10;;;25.67;64.52;99766.16;5019982;28;20441;-76
2022/07/25 07:32:42;;;;;;;11.32;6.50;;;25.10;88.70;;;25.66;63.62;99773.66;5032211;28;20064;-77
2022/07/25 07:35:11;;;;;;;10.90;6.20;;;25.10;87.60;;;25.64;65.34;99773.16;5032726;28;20073;-76
2022/07/25 07:37:38;;;;;;;7.78;5.88;;;25.20;89.30;;;25.66;65.48;99767.28;5032224;28;20046;-76
2022/07/25 07:40:09;;;;;;;10.93;6.32;;;25.20;88.90;;;25.73;64.45;99774.13;5031119;28;20124;-76
2022/07/25 07:42:41;;;;;;;9.90;5.85;;;25.30;88.50;;;25.87;65.38;99763.00;5031595;28;20045;-76
2022/07/25 07:45:17;;;;;;;11.77;6.45;;;25.30;89.20;;;25.90;65.61;99767.97;5023675;28;20037;-76
2022/07/25 07:47:46;;;;;;;9.13;5.97;;;25.40;89.40;;;25.97;65.22;99773.19;5032857;28;20045;-76
2022/07/25 07:50:15;;;;;;;8.90;5.68;;;25.40;88.90;;;26.07;64.98;99770.22;5031132;28;20041;-76
2022/07/25 07:52:43;;;;;;;9.75;6.25;;;25.40;89.10;;;26.19;65.40;99768.91;5032770;28;20056;-76
2022/07/25 07:57:58;;;;;;;11.25;6.22;;;25.60;87.70;;;26.47;62.82;99770.59;5032515;28;20514;-78
2022/07/25 08:00:27;;;;;;;7.72;6.50;;;25.70;87.80;;;26.52;63.97;99766.84;5027763;28;20037;-78
2022/07/25 08:02:55;;;;;;;10.88;5.85;;;25.80;88.40;;;26.51;64.65;99771.63;5015599;28;20058;-77
2022/07/25 08:05:24;;;;;;;11.75;6.20;;;25.80;88.80;;;26.44;66.49;99760.03;5013457;28;20037;-77
2022/07/25 08:07:53;;;;;;;9.30;6.13;;;25.80;90.30;;;26.27;63.40;99762.59;5029757;28;20041;-76
2022/07/25 08:10:24;;;;;;;9.48;5.53;;;25.70;87.30;;;26.13;63.10;99762.59;5028019;28;20672;-77
2022/07/25 08:12:51;;;;;;;9.13;5.75;;;25.70;87.00;;;26.08;62.94;99766.31;5031489;28;20049;-77
2022/07/25 08:15:22;;;;;;;7.95;5.78;;;25.60;87.10;;;26.11;64.93;99779.63;5022164;28;20112;-77
2022/07/25 08:17:50;;;;;;;10.82;6.15;;;25.60;88.50;;;26.13;67.63;99777.34;5004597;28;20441;-77
2022/07/25 08:20:18;;;;;;;9.23;6.22;;;25.60;90.90;;;26.21;66.10;99777.78;5031647;28;20425;-76
2022/07/25 08:22:47;;;;;;;9.85;6.85;;;25.60;89.70;;;26.20;66.26;99771.38;5025319;28;20118;-77
2022/07/25 08:25:18;;;;;;;8.80;5.93;;;25.60;90.10;;;26.20;65.64;99778.91;5031638;28;20038;-77
2022/07/25 08:27:46;;;;;;;9.85;6.65;;;25.60;89.20;;;26.14;65.15;99779.03;5030339;28;20045;-76
2022/07/25 08:30:16;;;;;;;11.07;6.45;;;25.60;89.60;;;26.14;67.29;99781.81;5030664;28;20112;-77
2022/07/25 08:32:51;;;;;;;9.52;6.03;;;25.60;91.10;;;26.22;66.74;99785.84;5030176;28;20579;-76
2022/07/25 08:35:19;;;;;;;10.15;6.75;;;25.70;90.10;;;26.29;67.40;99780.72;5023691;28;20061;-77
2022/07/25 08:37:47;;;;;;;12.18;7.18;;;25.70;91.00;;;26.39;68.64;99790.00;5028660;28;20038;-78
2022/07/25 08:40:18;;;;;;;10.52;6.07;;;25.70;92.20;;;26.37;64.82;99775.53;5029171;28;20033;-79
2022/07/25 08:42:47;;;;;;;8.43;6.10;;;25.80;88.70;;;26.40;64.56;99781.31;5031736;28;20120;-79
2022/07/25 08:45:18;;;;;;;11.57;6.18;;;25.80;88.80;;;26.49;64.99;99790.63;5031266;28;20037;-79
2022/07/25 08:47:46;;;;;;;8.07;6.38;;;25.80;89.00;;;26.53;68.98;99785.25;5028931;28;20052;-78
2022/07/25 08:50:16;;;;;;;12.07;6.45;;;25.90;92.20;;;26.44;66.21;99781.53;5029897;28;20383;-79
2022/07/25 08:52:46;;;;;;;9.38;6.15;;;25.90;89.80;;;26.32;64.22;99773.69;5031383;28;20121;-79
2022/07/25 08:55:18;;;;;;;9.90;6.57;;;25.80;87.90;;;26.22;66.92;99773.88;5029118;28;20042;-79
2022/07/25 08:57:49;;;;;;;8.25;6.10;;;25.80;90.30;;;26.08;68.05;99773.81;5029301;28;20095;-79
2022/07/25 09:00:19;;;;;;;7.65;6.07;;;25.80;91.10;;;25.98;68.18;99777.63;5030542;28;20041;-79
2022/07/25 09:02:52;;;;;;;12.57;5.90;;;25.70;91.30;;;25.90;68.27;99783.88;5030876;28;20073;-79
2022/07/25 09:05:21;;;;;;;7.80;6.18;;;25.70;90.50;;;25.89;69.08;99780.28;5031255;28;20048;-79
2022/07/25 09:07:49;;;;;;;10.73;6.75;;;25.60;90.90;;;25.96;68.47;99770.72;5028559;28;20045;-79
2022/07/25 09:10:19;;;;;;;12.70;6.25;;;25.60;90.90;;;26.11;67.82;99796.34;5029639;28;20046;-79
2022/07/25 09:12:59;;;;;;;8.60;5.32;;;25.60;90.50;;;26.26;68.57;99792.47;5029472;28;20046;-79
2022/07/25 09:15:29;;;;;;;8.45;6.10;;;25.70;91.50;;;26.45;68.65;99786.81;5028661;28;20111;-79
2022/07/25 09:17:58;;;;;;;11.77;5.70;;;25.80;92.10;;;26.54;67.68;99778.56;5021690;28;20049;-79
2022/07/25 09:20:37;;;;;;;11.88;6.00;;;25.80;90.90;;;26.57;68.13;99779.91;5022263;28;20815;-79
2022/07/25 09:23:04;;;;;;;8.38;5.88;;;26.00;91.30;;;26.57;67.35;99771.53;5029762;28;20073;-79
2022/07/25 09:25:31;;;;;;;10.88;6.32;;;26.10;90.90;;;26.63;68.22;99773.91;5030227;28;20132;-79
2022/07/25 09:28:13;;;;;;;9.25;5.60;;;26.20;91.60;;;26.63;65.51;99771.13;5028760;28;20037;-79
2022/07/25 09:30:52;;;;;;;9.48;5.90;;;26.20;88.80;;;26.74;63.37;99780.13;5029966;28;20099;-79
2022/07/25 09:33:21;;;;;;;10.35;6.20;;;26.20;87.40;;;26.72;63.29;99782.41;5029396;28;20050;-79
2022/07/25 09:35:48;;;;;;;8.25;5.68;;;26.30;87.00;;;26.71;62.56;99784.38;5010312;28;20073;-79
2022/07/25 09:38:17;;;;;;;9.48;5.85;;;26.30;87.00;;;26.84;63.07;99774.31;5028724;28;20033;-79
2022/07/25 09:40:56;;;;;;;13.55;5.97;;;26.30;87.30;;;27.05;66.30;99787.84;5029207;28;20041;-79
2022/07/25 09:43:37;;;;;;;10.80;6.10;;;26.30;89.80;;;27.15;63.35;99784.84;5022246;28;20128;-81
2022/07/25 09:46:04;;;;;;;;;;;26.50;87.50;;;27.22;60.57;99792.78;5028069;28;20045;-80
2022/07/25 09:48:32;;;;;;;8.70;5.75;;;26.50;85.00;;;27.35;63.38;99799.53;5028763;28;20389;-78
2022/07/25 09:50:59;;;;;;;9.27;5.45;;;26.50;88.10;;;27.44;61.93;99798.44;5009256;28;20041;-82
2022/07/25 09:53:27;;;;;;;11.43;6.05;;;26.60;86.40;;;27.42;62.75;99788.75;5022131;28;20057;-77
2022/07/25 09:55:55;;;;;;;10.82;6.20;;;26.60;87.10;;;27.26;62.48;99791.88;5025819;28;20066;-77
2022/07/25 09:58:25;;;;;;;9.80;6.00;;;26.60;87.10;;;27.28;63.55;99794.34;5028645;28;20045;-77
2022/07/25 10:01:00;;;;;;;11.90;5.88;;;26.60;87.50;;;27.29;63.13;99802.41;5027683;28;20033;-77
2022/07/25 10:03:38;;;;;;;10.05;6.20;;;26.60;87.10;;;27.35;61.75;99800.34;5027044;28;20091;-78
2022/07/25 10:06:20;;;;;;;9.88;6.22;;;26.60;86.70;;;27.40;61.97;99808.63;5011954;28;20045;-77
2022/07/25 10:08:49;;;;;;;10.23;5.60;;;26.70;86.30;;;27.29;64.52;99826.75;5020029;28;20501;-77
2022/07/25 10:11:21;;;;;;;11.45;6.03;;;26.70;87.60;;;27.08;61.29;99818.78;5029386;28;20045;-77
2022/07/25 10:13:50;;;;;;;9.18;6.57;;;26.60;85.60;;;26.93;60.49;99821.91;5028042;28;20049;-77
2022/07/25 10:16:21;;;;;;;10.68;6.70;;;26.50;85.00;;;26.82;63.38;99823.25;5028779;28;20041;-77
2022/07/25 10:18:51;;;;;;;13.80;7.07;;;26.40;87.00;;;26.69;63.02;99834.13;5030550;28;20045;-79
2022/07/25 10:21:19;;;;;;;9.30;6.88;;;26.30;86.80;;;26.49;61.93;99835.28;5030061;28;20103;-77
2022/07/25 10:24:02;;;;;;;9.73;6.53;;;26.30;85.80;;;26.24;63.76;99844.13;5029962;28;20136;-77